sensor_id;sensor_type;location;lat;lon;timestamp;pressure;altitude;pressure_sealevel;temperature;humidity
20955;BME280;10636;19.390;-99.256;2023-01-29T00:02:16;77802.09;;;24.18;24.81
20955;BME280;10636;19.390;-99.256;2023-01-29T00:04:44;77803.41;;;24.17;24.99
20955;BME280;10636;19.390;-99.256;2023-01-29T00:07:13;77798.06;;;24.17;25.16
20955;BME280;10636;19.390;-99.256;2023-01-29T00:09:41;77802.72;;;24.17;25.36
20955;BME280;10636;19.390;-99.256;2023-01-29T00:12:10;77801.34;;;24.16;25.13
20955;BME280;10636;19.390;-99.256;2023-01-29T00:14:39;77800.72;;;24.17;25.18
20955;BME280;10636;19.390;-99.256;2023-01-29T00:17:07;77798.75;;;24.18;25.21
20955;BME280;10636;19.390;-99.256;2023-01-29T00:19:37;77807.41;;;24.16;25.25
20955;BME280;10636;19.390;-99.256;2023-01-29T00:22:06;77808.00;;;24.15;25.14
20955;BME280;10636;19.390;-99.256;2023-01-29T00:24:34;77810.06;;;24.16;25.23
20955;BME280;10636;19.390;-99.256;2023-01-29T00:27:03;77804.63;;;24.14;25.33
20955;BME280;10636;19.390;-99.256;2023-01-29T00:29:38;77813.97;;;24.13;25.09
20955;BME280;10636;19.390;-99.256;2023-01-29T00:32:07;77819.25;;;24.11;25.73
20955;BME280;10636;19.390;-99.256;2023-01-29T00:34:37;77825.91;;;24.10;25.63
20955;BME280;10636;19.390;-99.256;2023-01-29T00:37:06;77829.19;;;24.09;25.89
20955;BME280;10636;19.390;-99.256;2023-01-29T00:39:34;77831.81;;;24.07;25.28
20955;BME280;10636;19.390;-99.256;2023-01-29T00:42:05;77837.09;;;24.05;25.72
20955;BME280;10636;19.390;-99.256;2023-01-29T00:44:50;77839.06;;;24.04;25.21
20955;BME280;10636;19.390;-99.256;2023-01-29T00:47:25;77841.06;;;24.04;25.29
20955;BME280;10636;19.390;-99.256;2023-01-29T00:50:06;77834.94;;;24.01;25.45
20955;BME280;10636;19.390;-99.256;2023-01-29T00:52:36;77842.81;;;23.97;25.17
20955;BME280;10636;19.390;-99.256;2023-01-29T00:55:08;77845.66;;;24.01;25.13
20955;BME280;10636;19.390;-99.256;2023-01-29T00:57:38;77848.25;;;23.99;25.14
20955;BME280;10636;19.390;-99.256;2023-01-29T01:00:08;77857.59;;;23.98;24.96
20955;BME280;10636;19.390;-99.256;2023-01-29T01:02:38;77860.88;;;23.96;24.98
20955;BME280;10636;19.390;-99.256;2023-01-29T01:05:25;77864.19;;;23.95;25.51
20955;BME280;10636;19.390;-99.256;2023-01-29T01:07:54;77869.38;;;23.91;25.29
20955;BME280;10636;19.390;-99.256;2023-01-29T01:10:25;77876.09;;;23.92;25.04
20955;BME280;10636;19.390;-99.256;2023-01-29T01:12:55;77878.78;;;23.92;25.45
20955;BME280;10636;19.390;-99.256;2023-01-29T01:15:25;77884.06;;;23.90;25.52
20955;BME280;10636;19.390;-99.256;2023-01-29T01:17:55;77885.28;;;23.87;25.38
20955;BME280;10636;19.390;-99.256;2023-01-29T01:20:28;77884.59;;;23.86;25.25
20955;BME280;10636;19.390;-99.256;2023-01-29T01:22:59;77892.56;;;23.84;25.10
20955;BME280;10636;19.390;-99.256;2023-01-29T01:25:28;77898.59;;;23.85;24.16
20955;BME280;10636;19.390;-99.256;2023-01-29T01:27:57;77898.59;;;23.85;24.56
20955;BME280;10636;19.390;-99.256;2023-01-29T01:30:29;77903.84;;;23.83;24.91
20955;BME280;10636;19.390;-99.256;2023-01-29T01:32:58;77904.47;;;23.81;24.43
20955;BME280;10636;19.390;-99.256;2023-01-29T01:35:28;77915.88;;;23.82;24.84
20955;BME280;10636;19.390;-99.256;2023-01-29T01:37:57;77912.44;;;23.79;24.20
20955;BME280;10636;19.390;-99.256;2023-01-29T01:40:26;77917.09;;;23.79;24.53
20955;BME280;10636;19.390;-99.256;2023-01-29T01:42:57;77931.75;;;23.78;24.10
20955;BME280;10636;19.390;-99.256;2023-01-29T01:45:28;77933.75;;;23.77;24.71
20955;BME280;10636;19.390;-99.256;2023-01-29T01:48:00;77935.75;;;23.77;25.14
20955;BME280;10636;19.390;-99.256;2023-01-29T01:50:35;77944.41;;;23.75;24.42
20955;BME280;10636;19.390;-99.256;2023-01-29T01:53:08;77950.38;;;23.73;24.58
20955;BME280;10636;19.390;-99.256;2023-01-29T01:55:41;77958.31;;;23.71;24.75
20955;BME280;10636;19.390;-99.256;2023-01-29T01:58:17;77953.47;;;23.68;24.44
20955;BME280;10636;19.390;-99.256;2023-01-29T02:00:49;77964.19;;;23.68;25.14
20955;BME280;10636;19.390;-99.256;2023-01-29T02:03:20;77973.59;;;23.69;25.03
20955;BME280;10636;19.390;-99.256;2023-01-29T02:06:09;77971.50;;;23.67;24.50
20955;BME280;10636;19.390;-99.256;2023-01-29T02:09:03;77979.53;;;23.67;24.08
20955;BME280;10636;19.390;-99.256;2023-01-29T02:11:52;77987.50;;;23.65;24.99
20955;BME280;10636;19.390;-99.256;2023-01-29T02:14:21;77988.81;;;23.64;24.23
20955;BME280;10636;19.390;-99.256;2023-01-29T02:16:50;77988.13;;;23.64;24.74
20955;BME280;10636;19.390;-99.256;2023-01-29T02:19:24;77992.78;;;23.63;25.01
20955;BME280;10636;19.390;-99.256;2023-01-29T02:25:46;78003.28;;;23.59;24.50
20955;BME280;10636;19.390;-99.256;2023-01-29T02:28:27;78008.63;;;23.59;24.44
20955;BME280;10636;19.390;-99.256;2023-01-29T02:31:05;78007.25;;;23.58;24.84
20955;BME280;10636;19.390;-99.256;2023-01-29T02:33:44;78012.50;;;23.56;24.66
20955;BME280;10636;19.390;-99.256;2023-01-29T02:36:26;78015.28;;;23.58;25.41
20955;BME280;10636;19.390;-99.256;2023-01-29T02:39:02;78015.38;;;23.60;25.22
20955;BME280;10636;19.390;-99.256;2023-01-29T02:41:39;78013.50;;;23.63;26.13
20955;BME280;10636;19.390;-99.256;2023-01-29T02:44:17;78013.50;;;23.63;25.72
20955;BME280;10636;19.390;-99.256;2023-01-29T02:46:52;78018.06;;;23.60;25.87
20955;BME280;10636;19.390;-99.256;2023-01-29T02:49:31;78024.69;;;23.59;26.89
20955;BME280;10636;19.390;-99.256;2023-01-29T02:52:05;78028.00;;;23.58;26.27
20955;BME280;10636;19.390;-99.256;2023-01-29T02:54:42;78031.34;;;23.58;27.36
20955;BME280;10636;19.390;-99.256;2023-01-29T02:57:17;78036.72;;;23.58;27.02
20955;BME280;10636;19.390;-99.256;2023-01-29T02:59:53;78035.34;;;23.57;26.79
20955;BME280;10636;19.390;-99.256;2023-01-29T03:02:28;78038.00;;;23.57;27.22
20955;BME280;10636;19.390;-99.256;2023-01-29T03:05:00;78009.75;;;23.38;27.49
20955;BME280;10636;19.390;-99.256;2023-01-29T03:07:36;78054.06;;;23.57;26.96
20955;BME280;10636;19.390;-99.256;2023-01-29T03:10:14;78045.06;;;23.51;27.52
20955;BME280;10636;19.390;-99.256;2023-01-29T03:12:46;78051.28;;;23.55;27.84
20955;BME280;10636;19.390;-99.256;2023-01-29T03:15:23;78042.94;;;23.47;27.42
20955;BME280;10636;19.390;-99.256;2023-01-29T03:17:57;78048.44;;;23.51;27.32
20955;BME280;10636;19.390;-99.256;2023-01-29T03:20:32;78056.31;;;23.47;27.66
20955;BME280;10636;19.390;-99.256;2023-01-29T03:23:06;78063.81;;;23.51;27.46
20955;BME280;10636;19.390;-99.256;2023-01-29T03:25:51;78065.78;;;23.50;27.62
20955;BME280;10636;19.390;-99.256;2023-01-29T03:28:41;78069.78;;;23.49;27.68
20955;BME280;10636;19.390;-99.256;2023-01-29T03:31:30;78059.41;;;23.41;27.59
20955;BME280;10636;19.390;-99.256;2023-01-29T03:34:19;78074.94;;;23.45;27.19
20955;BME280;10636;19.390;-99.256;2023-01-29T03:36:56;78072.88;;;23.43;27.68
20955;BME280;10636;19.390;-99.256;2023-01-29T03:39:28;78072.88;;;23.43;27.22
20955;BME280;10636;19.390;-99.256;2023-01-29T03:42:03;78080.09;;;23.41;27.56
20955;BME280;10636;19.390;-99.256;2023-01-29T03:44:37;78084.09;;;23.40;27.87
20955;BME280;10636;19.390;-99.256;2023-01-29T03:47:19;78083.41;;;23.39;27.40
20955;BME280;10636;19.390;-99.256;2023-01-29T03:49:58;78090.13;;;23.40;27.50
20955;BME280;10636;19.390;-99.256;2023-01-29T03:52:33;78092.03;;;23.38;27.41
20955;BME280;10636;19.390;-99.256;2023-01-29T03:55:16;78090.66;;;23.37;28.13
20955;BME280;10636;19.390;-99.256;2023-01-29T03:57:54;78095.31;;;23.36;27.69
20955;BME280;10636;19.390;-99.256;2023-01-29T04:00:32;78097.28;;;23.36;27.59
20955;BME280;10636;19.390;-99.256;2023-01-29T04:03:12;78103.34;;;23.36;28.05
20955;BME280;10636;19.390;-99.256;2023-01-29T04:05:48;78108.59;;;23.34;28.09
20955;BME280;10636;19.390;-99.256;2023-01-29T04:08:23;78107.22;;;23.33;28.02
20955;BME280;10636;19.390;-99.256;2023-01-29T04:10:58;78107.81;;;23.32;28.28
20955;BME280;10636;19.390;-99.256;2023-01-29T04:13:30;78114.47;;;23.31;28.02
20955;BME280;10636;19.390;-99.256;2023-01-29T04:16:04;78110.41;;;23.30;28.22
20955;BME280;10636;19.390;-99.256;2023-01-29T04:18:35;78115.44;;;23.37;28.51
20955;BME280;10636;19.390;-99.256;2023-01-29T04:21:07;78122.25;;;23.40;27.76
20955;BME280;10636;19.390;-99.256;2023-01-29T04:23:36;78128.28;;;23.41;28.70
20955;BME280;10636;19.390;-99.256;2023-01-29T04:26:30;78127.00;;;23.42;28.22
20955;BME280;10636;19.390;-99.256;2023-01-29T04:29:18;78122.94;;;23.41;28.87
20955;BME280;10636;19.390;-99.256;2023-01-29T04:31:55;78134.44;;;23.43;28.90
20955;BME280;10636;19.390;-99.256;2023-01-29T04:34:28;78144.44;;;23.43;29.08
20955;BME280;10636;19.390;-99.256;2023-01-29T04:37:10;78135.22;;;23.46;28.25
20955;BME280;10636;19.390;-99.256;2023-01-29T04:39:45;78128.47;;;23.45;28.36
20955;BME280;10636;19.390;-99.256;2023-01-29T04:42:24;78137.13;;;23.43;28.60
20955;BME280;10636;19.390;-99.256;2023-01-29T04:45:02;78136.31;;;23.41;28.79
20955;BME280;10636;19.390;-99.256;2023-01-29T04:47:41;78136.44;;;23.43;28.39
20955;BME280;10636;19.390;-99.256;2023-01-29T04:50:22;78143.75;;;23.42;28.56
20955;BME280;10636;19.390;-99.256;2023-01-29T04:52:56;78142.78;;;23.36;28.46
20955;BME280;10636;19.390;-99.256;2023-01-29T04:55:32;78153.78;;;23.42;28.42
20955;BME280;10636;19.390;-99.256;2023-01-29T04:58:06;78146.44;;;23.42;28.35
20955;BME280;10636;19.390;-99.256;2023-01-29T05:00:39;78145.56;;;23.38;28.38
20955;BME280;10636;19.390;-99.256;2023-01-29T05:03:12;78144.94;;;23.39;28.79
20955;BME280;10636;19.390;-99.256;2023-01-29T05:05:45;78155.06;;;23.41;28.88
20955;BME280;10636;19.390;-99.256;2023-01-29T05:08:18;78147.63;;;23.39;28.77
20955;BME280;10636;19.390;-99.256;2023-01-29T05:10:54;78147.03;;;23.41;29.10
20955;BME280;10636;19.390;-99.256;2023-01-29T05:13:37;78157.72;;;23.41;29.18
20955;BME280;10636;19.390;-99.256;2023-01-29T05:16:13;78157.66;;;23.39;28.92
20955;BME280;10636;19.390;-99.256;2023-01-29T05:18:43;78157.03;;;23.40;28.51
20955;BME280;10636;19.390;-99.256;2023-01-29T05:21:13;78157.66;;;23.39;28.95
20955;BME280;10636;19.390;-99.256;2023-01-29T05:23:42;78154.88;;;23.37;29.03
20955;BME280;10636;19.390;-99.256;2023-01-29T05:26:23;78150.91;;;23.38;28.62
20955;BME280;10636;19.390;-99.256;2023-01-29T05:29:10;78153.47;;;23.36;29.05
20955;BME280;10636;19.390;-99.256;2023-01-29T05:31:39;78154.78;;;23.35;28.87
20955;BME280;10636;19.390;-99.256;2023-01-29T05:34:08;78153.41;;;23.34;28.72
20955;BME280;10636;19.390;-99.256;2023-01-29T05:36:46;78156.75;;;23.34;28.77
20955;BME280;10636;19.390;-99.256;2023-01-29T05:39:15;78165.41;;;23.33;29.53
20955;BME280;10636;19.390;-99.256;2023-01-29T05:41:56;78152.63;;;23.31;29.08
20955;BME280;10636;19.390;-99.256;2023-01-29T05:44:25;78142.50;;;23.30;29.28
20955;BME280;10636;19.390;-99.256;2023-01-29T05:46:54;78150.53;;;23.30;28.93
20955;BME280;10636;19.390;-99.256;2023-01-29T05:49:22;78143.81;;;23.29;28.94
20955;BME280;10636;19.390;-99.256;2023-01-29T05:51:52;78139.56;;;23.23;29.42
20955;BME280;10636;19.390;-99.256;2023-01-29T05:54:21;78149.06;;;23.27;28.98
20955;BME280;10636;19.390;-99.256;2023-01-29T05:56:50;78149.75;;;23.27;29.53
20955;BME280;10636;19.390;-99.256;2023-01-29T05:59:19;78140.34;;;23.26;29.56
20955;BME280;10636;19.390;-99.256;2023-01-29T06:01:50;78143.03;;;23.26;28.87
20955;BME280;10636;19.390;-99.256;2023-01-29T06:04:23;78141.03;;;23.27;28.98
20955;BME280;10636;19.390;-99.256;2023-01-29T06:06:53;78145.00;;;23.26;29.17
20955;BME280;10636;19.390;-99.256;2023-01-29T06:09:22;78150.25;;;23.23;29.07
20955;BME280;10636;19.390;-99.256;2023-01-29T06:11:50;78151.56;;;23.22;29.11
20955;BME280;10636;19.390;-99.256;2023-01-29T06:14:19;78143.53;;;23.22;28.96
20955;BME280;10636;19.390;-99.256;2023-01-29T06:16:48;78138.09;;;23.20;29.48
20955;BME280;10636;19.390;-99.256;2023-01-29T06:19:16;78142.03;;;23.19;28.88
20955;BME280;10636;19.390;-99.256;2023-01-29T06:21:46;78143.34;;;23.18;29.44
20955;BME280;10636;19.390;-99.256;2023-01-29T06:24:21;78143.94;;;23.17;29.51
20955;BME280;10636;19.390;-99.256;2023-01-29T06:26:49;78138.22;;;23.09;29.09
20955;BME280;10636;19.390;-99.256;2023-01-29T06:29:18;78141.19;;;23.15;28.98
20955;BME280;10636;19.390;-99.256;2023-01-29T06:31:46;78144.63;;;23.17;29.73
20955;BME280;10636;19.390;-99.256;2023-01-29T06:34:15;78130.47;;;23.15;29.51
20955;BME280;10636;19.390;-99.256;2023-01-29T06:36:44;78143.16;;;23.14;29.61
20955;BME280;10636;19.390;-99.256;2023-01-29T06:39:12;78135.03;;;23.12;29.64
20955;BME280;10636;19.390;-99.256;2023-01-29T06:41:45;78134.53;;;23.16;29.40
20955;BME280;10636;19.390;-99.256;2023-01-29T06:44:19;78135.72;;;23.13;29.73
20955;BME280;10636;19.390;-99.256;2023-01-29T06:46:52;78134.94;;;23.10;29.63
20955;BME280;10636;19.390;-99.256;2023-01-29T06:49:28;78140.31;;;23.10;29.42
20955;BME280;10636;19.390;-99.256;2023-01-29T06:51:59;78128.03;;;23.05;29.65
20955;BME280;10636;19.390;-99.256;2023-01-29T06:54:28;78132.16;;;23.08;29.81
20955;BME280;10636;19.390;-99.256;2023-01-29T06:56:58;78132.16;;;23.08;29.69
20955;BME280;10636;19.390;-99.256;2023-01-29T06:59:27;78130.78;;;23.07;29.93
20955;BME280;10636;19.390;-99.256;2023-01-29T07:01:55;78130.78;;;23.07;29.77
20955;BME280;10636;19.390;-99.256;2023-01-29T07:04:24;78129.22;;;23.02;29.80
20955;BME280;10636;19.390;-99.256;2023-01-29T07:06:53;78129.31;;;23.04;29.57
20955;BME280;10636;19.390;-99.256;2023-01-29T07:09:21;78106.28;;;22.83;29.48
20955;BME280;10636;19.390;-99.256;2023-01-29T07:12:02;78133.28;;;23.03;29.88
20955;BME280;10636;19.390;-99.256;2023-01-29T07:14:31;78135.25;;;23.03;29.57
20955;BME280;10636;19.390;-99.256;2023-01-29T07:16:59;78128.53;;;23.02;29.72
20955;BME280;10636;19.390;-99.256;2023-01-29T07:19:28;78126.47;;;23.00;29.73
20955;BME280;10636;19.390;-99.256;2023-01-29T07:21:56;78131.69;;;22.98;29.72
20955;BME280;10636;19.390;-99.256;2023-01-29T07:24:28;78127.66;;;22.97;29.81
20955;BME280;10636;19.390;-99.256;2023-01-29T07:27:00;78127.66;;;22.97;29.30
20955;BME280;10636;19.390;-99.256;2023-01-29T07:29:33;78129.63;;;22.96;29.91
20955;BME280;10636;19.390;-99.256;2023-01-29T07:32:02;78130.22;;;22.95;29.59
20955;BME280;10636;19.390;-99.256;2023-01-29T07:34:33;78114.00;;;22.91;29.44
20955;BME280;10636;19.390;-99.256;2023-01-29T07:37:01;78122.22;;;22.95;30.07
20955;BME280;10636;19.390;-99.256;2023-01-29T07:39:31;78114.88;;;22.95;29.45
20955;BME280;10636;19.390;-99.256;2023-01-29T07:42:01;78116.84;;;22.95;29.50
20955;BME280;10636;19.390;-99.256;2023-01-29T07:44:30;78111.41;;;22.93;29.31
20955;BME280;10636;19.390;-99.256;2023-01-29T07:46:58;78111.41;;;22.93;29.24
20955;BME280;10636;19.390;-99.256;2023-01-29T07:49:27;78106.06;;;22.93;29.19
20955;BME280;10636;19.390;-99.256;2023-01-29T07:51:56;78110.03;;;22.92;29.35
20955;BME280;10636;19.390;-99.256;2023-01-29T07:54:27;78109.94;;;22.90;29.75
20955;BME280;10636;19.390;-99.256;2023-01-29T07:56:55;78105.88;;;22.89;29.95
20955;BME280;10636;19.390;-99.256;2023-01-29T07:59:26;78105.88;;;22.89;29.30
20955;BME280;10636;19.390;-99.256;2023-01-29T08:01:54;78105.88;;;22.89;29.83
20955;BME280;10636;19.390;-99.256;2023-01-29T08:04:23;78104.47;;;22.88;29.25
20955;BME280;10636;19.390;-99.256;2023-01-29T08:06:52;78102.38;;;22.86;29.70
20955;BME280;10636;19.390;-99.256;2023-01-29T08:09:20;78106.34;;;22.85;29.99
20955;BME280;10636;19.390;-99.256;2023-01-29T08:11:49;78109.63;;;22.84;29.25
20955;BME280;10636;19.390;-99.256;2023-01-29T08:14:17;78104.28;;;22.84;29.99
20955;BME280;10636;19.390;-99.256;2023-01-29T08:16:48;78108.34;;;22.85;29.94
20955;BME280;10636;19.390;-99.256;2023-01-29T08:19:16;78104.19;;;22.82;30.11
20955;BME280;10636;19.390;-99.256;2023-01-29T08:21:45;78102.19;;;22.82;29.43
20955;BME280;10636;19.390;-99.256;2023-01-29T08:24:13;78100.13;;;22.81;29.39
20955;BME280;10636;19.390;-99.256;2023-01-29T08:26:42;78100.13;;;22.81;30.12
20955;BME280;10636;19.390;-99.256;2023-01-29T08:29:10;78105.47;;;22.81;29.71
20955;BME280;10636;19.390;-99.256;2023-01-29T08:31:39;78099.34;;;22.78;29.93
20955;BME280;10636;19.390;-99.256;2023-01-29T08:34:09;78107.38;;;22.78;29.43
20955;BME280;10636;19.390;-99.256;2023-01-29T08:36:38;78101.31;;;22.78;30.41
20955;BME280;10636;19.390;-99.256;2023-01-29T08:39:07;78101.22;;;22.76;29.59
20955;BME280;10636;19.390;-99.256;2023-01-29T08:41:35;78101.81;;;22.74;29.58
20955;BME280;10636;19.390;-99.256;2023-01-29T08:44:04;78094.38;;;22.73;29.76
20955;BME280;10636;19.390;-99.256;2023-01-29T08:46:33;78092.31;;;22.71;30.34
20955;BME280;10636;19.390;-99.256;2023-01-29T08:49:02;78091.03;;;22.72;30.50
20955;BME280;10636;19.390;-99.256;2023-01-29T08:51:32;78091.03;;;22.72;30.20
20955;BME280;10636;19.390;-99.256;2023-01-29T08:54:04;78090.34;;;22.71;30.48
20955;BME280;10636;19.390;-99.256;2023-01-29T08:56:33;78086.97;;;22.71;30.23
20955;BME280;10636;19.390;-99.256;2023-01-29T08:59:02;78090.25;;;22.69;29.60
20955;BME280;10636;19.390;-99.256;2023-01-29T09:01:30;78088.19;;;22.68;29.94
20955;BME280;10636;19.390;-99.256;2023-01-29T09:04:02;78094.22;;;22.68;29.91
20955;BME280;10636;19.390;-99.256;2023-01-29T09:06:32;78095.50;;;22.67;29.69
20955;BME280;10636;19.390;-99.256;2023-01-29T09:09:01;78095.50;;;22.67;30.12
20955;BME280;10636;19.390;-99.256;2023-01-29T09:11:30;78087.50;;;22.67;30.08
20955;BME280;10636;19.390;-99.256;2023-01-29T09:14:04;78090.75;;;22.66;29.86
20955;BME280;10636;19.390;-99.256;2023-01-29T09:16:38;78088.69;;;22.64;30.32
20955;BME280;10636;19.390;-99.256;2023-01-29T09:19:26;78085.31;;;22.64;30.41
20955;BME280;10636;19.390;-99.256;2023-01-29T09:22:03;78083.94;;;22.63;30.42
20955;BME280;10636;19.390;-99.256;2023-01-29T09:24:37;78061.19;;;22.48;29.94
20955;BME280;10636;19.390;-99.256;2023-01-29T09:27:07;78051.41;;;22.39;30.24
20955;BME280;10636;19.390;-99.256;2023-01-29T09:29:42;78082.44;;;22.60;30.37
20955;BME280;10636;19.390;-99.256;2023-01-29T09:32:16;78088.41;;;22.58;29.74
20955;BME280;10636;19.390;-99.256;2023-01-29T09:34:45;78083.06;;;22.58;30.70
20955;BME280;10636;19.390;-99.256;2023-01-29T09:37:15;78083.06;;;22.58;30.03
20955;BME280;10636;19.390;-99.256;2023-01-29T09:39:44;78076.91;;;22.56;30.15
20955;BME280;10636;19.390;-99.256;2023-01-29T09:42:19;78077.59;;;22.56;30.53
20955;BME280;10636;19.390;-99.256;2023-01-29T09:44:55;78076.22;;;22.55;30.49
20955;BME280;10636;19.390;-99.256;2023-01-29T09:47:26;78071.56;;;22.56;30.03
20955;BME280;10636;19.390;-99.256;2023-01-29T09:49:59;78080.19;;;22.54;30.65
20955;BME280;10636;19.390;-99.256;2023-01-29T09:52:35;78075.94;;;22.49;30.60
20955;BME280;10636;19.390;-99.256;2023-01-29T09:55:21;78053.72;;;22.31;30.24
20955;BME280;10636;19.390;-99.256;2023-01-29T09:57:53;78076.63;;;22.50;30.28
20955;BME280;10636;19.390;-99.256;2023-01-29T10:00:24;78079.91;;;22.48;30.36
20955;BME280;10636;19.390;-99.256;2023-01-29T10:03:14;78083.25;;;22.49;30.34
20955;BME280;10636;19.390;-99.256;2023-01-29T10:06:18;78081.88;;;22.48;30.81
20955;BME280;10636;19.390;-99.256;2023-01-29T10:09:18;78081.00;;;22.43;30.39
20955;BME280;10636;19.390;-99.256;2023-01-29T10:14:51;78089.09;;;22.45;30.97
20955;BME280;10636;19.390;-99.256;2023-01-29T10:17:51;78086.34;;;22.43;30.96
20955;BME280;10636;19.390;-99.256;2023-01-29T10:20:48;78088.94;;;22.41;30.73
20955;BME280;10636;19.390;-99.256;2023-01-29T10:23:23;78082.88;;;22.40;31.00
20955;BME280;10636;19.390;-99.256;2023-01-29T10:26:11;78083.59;;;22.41;31.10
20955;BME280;10636;19.390;-99.256;2023-01-29T10:28:59;78079.50;;;22.40;30.30
20955;BME280;10636;19.390;-99.256;2023-01-29T10:31:35;78084.16;;;22.39;30.55
20955;BME280;10636;19.390;-99.256;2023-01-29T10:34:15;78086.84;;;22.39;30.60
20955;BME280;10636;19.390;-99.256;2023-01-29T10:36:51;78084.75;;;22.38;30.79
20955;BME280;10636;19.390;-99.256;2023-01-29T10:39:28;78084.06;;;22.37;30.55
20955;BME280;10636;19.390;-99.256;2023-01-29T10:42:18;78087.44;;;22.38;31.17
20955;BME280;10636;19.390;-99.256;2023-01-29T10:45:04;78089.31;;;22.35;30.57
20955;BME280;10636;19.390;-99.256;2023-01-29T10:50:48;78079.13;;;22.32;30.69
20955;BME280;10636;19.390;-99.256;2023-01-29T10:53:30;78089.22;;;22.33;30.98
20955;BME280;10636;19.390;-99.256;2023-01-29T10:56:39;78088.63;;;22.35;31.18
20955;BME280;10636;19.390;-99.256;2023-01-29T10:59:33;78095.25;;;22.34;31.08
20955;BME280;10636;19.390;-99.256;2023-01-29T11:02:14;78049.56;;;22.00;31.12
20955;BME280;10636;19.390;-99.256;2023-01-29T11:04:43;78092.28;;;22.28;30.48
20955;BME280;10636;19.390;-99.256;2023-01-29T11:07:14;78099.91;;;22.33;30.73
20955;BME280;10636;19.390;-99.256;2023-01-29T11:09:51;78099.81;;;22.31;30.46
20955;BME280;10636;19.390;-99.256;2023-01-29T11:12:29;78097.84;;;22.32;31.16
20955;BME280;10636;19.390;-99.256;2023-01-29T11:15:13;78103.19;;;22.32;31.13
20955;BME280;10636;19.390;-99.256;2023-01-29T11:18:00;78104.34;;;22.29;30.44
20955;BME280;10636;19.390;-99.256;2023-01-29T11:20:33;78101.59;;;22.27;30.89
20955;BME280;10636;19.390;-99.256;2023-01-29T11:23:03;78109.00;;;22.28;30.42
20955;BME280;10636;19.390;-99.256;2023-01-29T11:25:35;78109.63;;;22.27;30.72
20955;BME280;10636;19.390;-99.256;2023-01-29T11:28:34;78109.63;;;22.27;31.26
20955;BME280;10636;19.390;-99.256;2023-01-29T11:31:25;78110.22;;;22.25;30.93
20955;BME280;10636;19.390;-99.256;2023-01-29T11:34:03;78108.25;;;22.26;30.54
20955;BME280;10636;19.390;-99.256;2023-01-29T11:36:41;78116.25;;;22.26;31.15
20955;BME280;10636;19.390;-99.256;2023-01-29T11:39:23;78114.84;;;22.25;31.01
20955;BME280;10636;19.390;-99.256;2023-01-29T11:41:56;78113.47;;;22.24;30.60
20955;BME280;10636;19.390;-99.256;2023-01-29T11:44:41;78114.84;;;22.25;31.33
20955;BME280;10636;19.390;-99.256;2023-01-29T11:47:17;78118.81;;;22.24;30.62
20955;BME280;10636;19.390;-99.256;2023-01-29T11:49:48;78120.78;;;22.23;30.82
20955;BME280;10636;19.390;-99.256;2023-01-29T11:52:19;78122.78;;;22.23;30.76
20955;BME280;10636;19.390;-99.256;2023-01-29T11:54:51;78118.44;;;22.15;31.20
20955;BME280;10636;19.390;-99.256;2023-01-29T11:57:28;78125.94;;;22.19;31.56
20955;BME280;10636;19.390;-99.256;2023-01-29T12:00:01;78126.53;;;22.17;30.92
20955;BME280;10636;19.390;-99.256;2023-01-29T12:02:36;78123.78;;;22.15;31.49
20955;BME280;10636;19.390;-99.256;2023-01-29T12:05:12;78126.53;;;22.17;31.22
20955;BME280;10636;19.390;-99.256;2023-01-29T12:07:52;78127.72;;;22.14;31.55
20955;BME280;10636;19.390;-99.256;2023-01-29T12:10:32;78134.47;;;22.15;31.64
20955;BME280;10636;19.390;-99.256;2023-01-29T12:13:24;78131.66;;;22.13;31.00
20955;BME280;10636;19.390;-99.256;2023-01-29T12:16:18;78138.41;;;22.14;31.24
20955;BME280;10636;19.390;-99.256;2023-01-29T12:19:15;78135.63;;;22.12;31.42
20955;BME280;10636;19.390;-99.256;2023-01-29T12:21:57;78134.25;;;22.11;31.01
20955;BME280;10636;19.390;-99.256;2023-01-29T12:24:34;78138.91;;;22.11;30.78
20955;BME280;10636;19.390;-99.256;2023-01-29T12:27:14;78138.91;;;22.11;31.19
20955;BME280;10636;19.390;-99.256;2023-01-29T12:29:51;78146.31;;;22.12;31.03
20955;BME280;10636;19.390;-99.256;2023-01-29T12:32:31;78144.94;;;22.11;30.83
20955;BME280;10636;19.390;-99.256;2023-01-29T12:35:11;78144.69;;;22.07;31.15
20955;BME280;10636;19.390;-99.256;2023-01-29T12:37:59;78141.94;;;22.05;31.32
20955;BME280;10636;19.390;-99.256;2023-01-29T12:40:33;78146.69;;;22.07;31.34
20955;BME280;10636;19.390;-99.256;2023-01-29T12:43:13;78149.97;;;22.05;31.08
20955;BME280;10636;19.390;-99.256;2023-01-29T12:45:45;78147.28;;;22.05;31.61
20955;BME280;10636;19.390;-99.256;2023-01-29T12:48:21;78147.28;;;22.05;30.75
20955;BME280;10636;19.390;-99.256;2023-01-29T12:50:54;78151.25;;;22.04;31.46
20955;BME280;10636;19.390;-99.256;2023-01-29T12:53:40;78153.81;;;22.02;31.32
20955;BME280;10636;19.390;-99.256;2023-01-29T12:56:26;78148.38;;;22.00;31.61
20955;BME280;10636;19.390;-99.256;2023-01-29T12:59:15;78151.72;;;22.01;31.61
20955;BME280;10636;19.390;-99.256;2023-01-29T13:01:49;78155.00;;;21.99;31.42
20955;BME280;10636;19.390;-99.256;2023-01-29T13:04:34;78146.09;;;21.95;31.71
20955;BME280;10636;19.390;-99.256;2023-01-29T13:07:14;78155.97;;;21.92;31.47
20955;BME280;10636;19.390;-99.256;2023-01-29T13:09:48;78149.34;;;21.93;30.78
20955;BME280;10636;19.390;-99.256;2023-01-29T13:12:20;78151.91;;;21.91;31.27
20955;BME280;10636;19.390;-99.256;2023-01-29T13:14:52;78147.16;;;21.89;30.74
20955;BME280;10636;19.390;-99.256;2023-01-29T13:17:26;78155.19;;;21.89;31.31
20955;BME280;10636;19.390;-99.256;2023-01-29T13:20:02;78159.03;;;21.86;30.84
20955;BME280;10636;19.390;-99.256;2023-01-29T13:22:36;78161.09;;;21.88;30.63
20955;BME280;10636;19.390;-99.256;2023-01-29T13:25:13;78165.06;;;21.87;31.39
20955;BME280;10636;19.390;-99.256;2023-01-29T13:27:44;78163.69;;;21.86;30.91
20955;BME280;10636;19.390;-99.256;2023-01-29T13:30:28;78160.91;;;21.84;31.21